createdAt,value
2023-04-02T00:00:36.744Z,0.80
2023-04-02T00:03:10.261Z,1.00
2023-04-02T00:05:50.098Z,0.80
2023-04-02T00:08:23.458Z,1.00
2023-04-02T00:10:53.345Z,0.90
2023-04-02T00:13:28.689Z,1.65
2023-04-02T00:16:00.277Z,0.82
2023-04-02T00:18:27.487Z,0.82
2023-04-02T00:21:03.275Z,1.50
2023-04-02T00:23:32.042Z,1.00
2023-04-02T00:25:58.413Z,0.55
2023-04-02T00:28:24.969Z,0.73
2023-04-02T00:30:55.029Z,0.70
2023-04-02T00:33:25.649Z,1.20
2023-04-02T00:35:54.406Z,1.00
2023-04-02T00:38:31.704Z,0.98
2023-04-02T00:41:09.594Z,0.90
2023-04-02T00:43:39.670Z,1.30
2023-04-02T00:46:14.787Z,1.15
2023-04-02T00:48:49.149Z,0.90
2023-04-02T00:51:17.657Z,1.20
2023-04-02T00:53:47.191Z,0.98
2023-04-02T00:56:20.564Z,1.30
2023-04-02T00:58:53.110Z,1.10
2023-04-02T01:01:24.659Z,1.30
2023-04-02T01:03:59.642Z,1.20
2023-04-02T01:06:31.112Z,1.40
2023-04-02T01:09:03.823Z,1.03
2023-04-02T01:11:55.568Z,1.45
2023-04-02T01:15:01.165Z,1.10
2023-04-02T01:17:50.202Z,1.30
2023-04-02T01:20:28.646Z,1.33
2023-04-02T01:23:08.095Z,0.90
2023-04-02T01:25:34.546Z,1.20
2023-04-02T01:28:19.535Z,0.80
2023-04-02T01:30:55.920Z,1.25
2023-04-02T01:34:01.087Z,1.10
2023-04-02T01:36:41.072Z,0.95
2023-04-02T01:39:21.392Z,0.60
2023-04-02T01:42:17.485Z,1.13
2023-04-02T01:44:48.951Z,0.85
2023-04-02T01:47:21.443Z,1.00
2023-04-02T01:49:47.887Z,1.08
2023-04-02T01:52:35.852Z,1.20
2023-04-02T01:55:03.513Z,1.23
2023-04-02T01:57:31.136Z,0.85
2023-04-02T02:00:02.630Z,1.00
2023-04-02T02:02:31.283Z,1.13
2023-04-02T02:04:58.759Z,1.00
2023-04-02T02:07:28.277Z,1.20
2023-04-02T02:09:55.225Z,1.00
2023-04-02T02:12:22.932Z,1.10
2023-04-02T02:14:52.235Z,1.00
2023-04-02T02:17:30.378Z,0.95
2023-04-02T02:20:06.677Z,0.90
2023-04-02T02:22:53.424Z,1.10
2023-04-02T02:25:24.085Z,1.40
2023-04-02T02:27:54.893Z,1.02
2023-04-02T02:30:36.131Z,1.10
2023-04-02T02:33:15.228Z,1.08
2023-04-02T02:35:56.007Z,1.50
2023-04-02T02:38:39.980Z,1.15
2023-04-02T02:41:30.720Z,1.05
2023-04-02T02:44:12.306Z,1.00
2023-04-02T02:47:00.280Z,1.03
2023-04-02T02:49:38.019Z,1.38
2023-04-02T02:52:10.433Z,0.98
2023-04-02T02:54:40.362Z,1.00
2023-04-02T02:57:13.187Z,1.20
2023-04-02T02:59:40.802Z,1.20
2023-04-02T03:02:08.056Z,0.85
2023-04-02T03:04:36.269Z,0.75
2023-04-02T03:07:05.878Z,1.20
2023-04-02T03:10:09.955Z,0.93
2023-04-02T03:12:43.899Z,1.02
2023-04-02T03:15:32.328Z,1.00
2023-04-02T03:18:04.717Z,1.25
2023-04-02T03:23:23.737Z,0.82
2023-04-02T03:26:12.464Z,1.25
2023-04-02T03:28:43.602Z,0.75
2023-04-02T03:31:38.175Z,1.27
2023-04-02T03:34:13.789Z,1.17
2023-04-02T03:36:53.199Z,1.00
2023-04-02T03:39:25.241Z,1.40
2023-04-02T03:42:10.148Z,1.38
2023-04-02T03:44:44.236Z,1.20
2023-04-02T03:47:19.935Z,1.00
2023-04-02T03:49:49.589Z,1.00
2023-04-02T03:52:29.903Z,1.20
2023-04-02T03:54:59.993Z,1.33
2023-04-02T03:57:36.876Z,1.38
2023-04-02T04:00:27.051Z,0.95
2023-04-02T04:02:59.155Z,1.08
2023-04-02T04:05:50.578Z,1.23
2023-04-02T04:08:25.180Z,1.23
2023-04-02T04:10:58.943Z,1.02
2023-04-02T04:13:37.061Z,0.95
2023-04-02T04:16:11.834Z,1.08
2023-04-02T04:18:52.271Z,0.82
2023-04-02T04:21:37.664Z,1.00
2023-04-02T04:24:17.042Z,1.10
2023-04-02T04:27:09.995Z,1.08
2023-04-02T04:29:45.684Z,0.90
2023-04-02T04:32:32.065Z,0.90
2023-04-02T04:35:04.656Z,0.80
2023-04-02T04:40:09.243Z,0.90
2023-04-02T04:42:39.797Z,1.10
2023-04-02T04:45:34.181Z,0.77
2023-04-02T04:48:04.998Z,1.25
2023-04-02T04:50:38.595Z,1.20
2023-04-02T04:53:07.711Z,3.17
2023-04-02T04:55:40.638Z,3.08
2023-04-02T04:58:24.104Z,2.63
2023-04-02T05:00:58.704Z,1.88
2023-04-02T05:03:55.358Z,1.52
2023-04-02T05:06:36.971Z,1.65
2023-04-02T05:09:27.458Z,1.13
2023-04-02T05:12:04.140Z,1.30
2023-04-02T05:15:07.605Z,1.50
2023-04-02T05:17:47.838Z,0.95
2023-04-02T05:20:17.209Z,1.13
2023-04-02T05:22:53.103Z,1.52
2023-04-02T05:25:27.127Z,1.48
2023-04-02T05:28:10.902Z,1.75
2023-04-02T05:30:49.369Z,2.30
2023-04-02T05:33:22.846Z,2.28
2023-04-02T05:35:58.246Z,2.30
2023-04-02T05:38:31.537Z,3.72
2023-04-02T05:41:07.175Z,2.70
2023-04-02T05:43:37.624Z,2.75
2023-04-02T05:46:14.945Z,2.33
2023-04-02T05:48:48.368Z,2.10
2023-04-02T05:51:25.669Z,1.33
2023-04-02T05:54:04.918Z,1.65
2023-04-02T05:56:40.552Z,1.30
2023-04-02T05:59:51.006Z,1.10
2023-04-02T06:02:39.461Z,1.13
2023-04-02T06:05:15.823Z,0.95
2023-04-02T06:07:48.068Z,1.30
2023-04-02T06:10:24.908Z,1.45
2023-04-02T06:13:02.271Z,1.27
2023-04-02T06:15:34.752Z,1.25
2023-04-02T06:18:25.319Z,1.10
2023-04-02T06:20:52.347Z,1.10
2023-04-02T06:23:21.696Z,1.48
2023-04-02T06:26:17.152Z,1.20
2023-04-02T06:28:51.645Z,1.33
2023-04-02T06:31:36.222Z,1.85
2023-04-02T06:34:06.932Z,1.60
2023-04-02T06:36:36.382Z,1.98
2023-04-02T06:39:09.238Z,1.70
2023-04-02T06:41:35.643Z,1.88
2023-04-02T06:44:16.306Z,1.67
2023-04-02T06:46:51.849Z,1.73
2023-04-02T06:49:44.281Z,1.38
2023-04-02T06:52:24.021Z,2.30
2023-04-02T06:54:50.441Z,2.08
2023-04-02T06:57:17.094Z,2.00
2023-04-02T06:59:43.698Z,1.80
2023-04-02T07:02:24.673Z,2.60
2023-04-02T07:04:51.407Z,1.85
2023-04-02T07:07:21.191Z,2.60
2023-04-02T07:09:47.639Z,3.60
2023-04-02T07:12:22.354Z,3.45
2023-04-02T07:14:48.784Z,3.13
2023-04-02T07:17:19.550Z,2.35
2023-04-02T07:19:49.621Z,2.22
2023-04-02T07:22:17.573Z,2.75
2023-04-02T07:24:44.316Z,2.70
2023-04-02T07:27:12.132Z,2.45
2023-04-02T07:29:44.688Z,2.17
2023-04-02T07:32:12.756Z,2.17
2023-04-02T07:34:42.000Z,1.90
2023-04-02T07:37:16.380Z,2.35
2023-04-02T07:39:45.579Z,2.50
2023-04-02T07:42:11.910Z,1.83
2023-04-02T07:44:38.279Z,2.08
2023-04-02T07:47:04.907Z,2.60
2023-04-02T07:49:31.349Z,2.03
2023-04-02T07:51:57.810Z,1.73
2023-04-02T07:54:24.184Z,2.03
2023-04-02T07:56:50.833Z,2.10
2023-04-02T07:59:17.233Z,2.10
2023-04-02T08:01:43.780Z,2.45
2023-04-02T08:04:21.906Z,2.20
2023-04-02T08:06:49.547Z,2.67
2023-04-02T08:09:17.553Z,1.95
2023-04-02T08:11:46.751Z,2.25
2023-04-02T08:14:13.901Z,2.47
2023-04-02T08:16:51.771Z,1.75
2023-04-02T08:19:19.462Z,2.50
2023-04-02T08:21:47.942Z,2.15
2023-04-02T08:24:14.350Z,2.35
2023-04-02T08:26:41.702Z,2.00
2023-04-02T08:29:11.560Z,2.60
2023-04-02T08:31:38.300Z,2.60
2023-04-02T08:34:04.736Z,2.50
2023-04-02T08:36:35.478Z,3.08
2023-04-02T08:39:01.958Z,3.03
2023-04-02T08:41:28.898Z,2.58
2023-04-02T08:44:08.904Z,2.22
2023-04-02T08:46:48.346Z,2.28
2023-04-02T08:49:19.742Z,2.40
2023-04-02T08:51:52.202Z,2.63
2023-04-02T08:54:25.534Z,2.38
2023-04-02T08:56:58.125Z,2.15
2023-04-02T08:59:38.708Z,2.15
2023-04-02T09:02:50.292Z,2.20
2023-04-02T09:05:23.073Z,2.47
2023-04-02T09:07:56.318Z,2.05
2023-04-02T09:10:30.886Z,2.55
2023-04-02T09:12:58.638Z,2.92
2023-04-02T09:15:36.385Z,2.80
2023-04-02T09:18:18.766Z,2.55
2023-04-02T09:20:48.105Z,2.95
2023-04-02T09:23:24.165Z,3.67
2023-04-02T09:26:03.638Z,4.55
2023-04-02T09:28:31.541Z,3.15
2023-04-02T09:31:19.591Z,3.75
2023-04-02T09:33:47.302Z,2.97
2023-04-02T09:36:35.005Z,3.42
2023-04-02T09:39:06.983Z,2.63
2023-04-02T09:41:40.114Z,3.15
2023-04-02T09:44:14.096Z,2.53
2023-04-02T09:46:54.243Z,2.92
2023-04-02T09:49:27.107Z,2.60
2023-04-02T09:52:06.660Z,2.55
2023-04-02T09:54:33.221Z,2.53
2023-04-02T09:57:00.953Z,2.45
2023-04-02T09:59:27.815Z,2.70
2023-04-02T10:01:54.121Z,2.38
2023-04-02T10:04:45.007Z,3.20
2023-04-02T10:07:36.927Z,2.75
2023-04-02T10:10:25.239Z,2.90
2023-04-02T10:13:00.196Z,3.85
2023-04-02T10:15:34.166Z,2.40
2023-04-02T10:18:08.025Z,2.42
2023-04-02T10:20:50.432Z,2.17
2023-04-02T10:23:19.313Z,1.85
2023-04-02T10:25:56.832Z,2.10
2023-04-02T10:28:52.631Z,2.00
2023-04-02T10:31:25.480Z,1.67
2023-04-02T10:34:08.251Z,2.08
2023-04-02T10:36:43.551Z,1.63
2023-04-02T10:39:33.589Z,1.63
2023-04-02T10:42:16.505Z,1.77
2023-04-02T10:44:55.880Z,1.35
2023-04-02T10:47:47.247Z,1.77
2023-04-02T10:50:59.244Z,1.95
2023-04-02T10:53:40.600Z,2.25
2023-04-02T10:56:12.423Z,2.10
2023-04-02T10:58:57.818Z,1.95
2023-04-02T11:01:30.489Z,2.22
2023-04-02T11:04:20.799Z,1.65
2023-04-02T11:07:07.584Z,1.70
2023-04-02T11:09:43.264Z,1.52
2023-04-02T11:12:23.744Z,1.25
2023-04-02T11:14:52.063Z,1.20
2023-04-02T11:17:20.176Z,1.77
2023-04-02T11:19:46.957Z,1.35
2023-04-02T11:22:25.599Z,1.17
2023-04-02T11:24:57.025Z,1.17
2023-04-02T11:27:31.368Z,2.42
2023-04-02T11:30:16.026Z,1.63
2023-04-02T11:32:51.581Z,1.00
2023-04-02T11:35:44.267Z,0.93
2023-04-02T11:38:10.796Z,0.98
2023-04-02T11:40:47.161Z,0.70
2023-04-02T11:43:32.429Z,0.77
2023-04-02T11:46:21.877Z,0.80
2023-04-02T11:48:48.395Z,0.93
2023-04-02T11:51:21.447Z,0.73
2023-04-02T11:53:50.146Z,0.47
2023-04-02T11:56:28.526Z,0.60
2023-04-02T11:59:03.294Z,0.50
2023-04-02T12:01:34.903Z,0.30
2023-04-02T12:04:22.542Z,0.35
2023-04-02T12:07:17.802Z,0.20
2023-04-02T12:09:44.592Z,0.52
2023-04-02T12:12:29.924Z,0.30
2023-04-02T12:14:58.477Z,0.50
2023-04-02T12:17:37.290Z,0.77
2023-04-02T12:20:10.232Z,0.30
2023-04-02T12:22:47.640Z,0.32
2023-04-02T12:25:39.995Z,0.30
2023-04-02T12:28:09.450Z,0.30
2023-04-02T12:30:40.046Z,0.40
2023-04-02T12:33:25.048Z,0.30
2023-04-02T12:35:58.519Z,0.20
2023-04-02T12:38:34.664Z,0.10
2023-04-02T12:41:06.385Z,0.15
2023-04-02T12:43:34.917Z,0.10
2023-04-02T12:46:05.397Z,0.10
2023-04-02T12:48:33.466Z,0.10
2023-04-02T12:51:04.116Z,0.30
2023-04-02T12:53:44.274Z,0.20
2023-04-02T12:56:22.151Z,0.25
2023-04-02T12:58:59.728Z,0.30
2023-04-02T13:01:31.722Z,0.20
2023-04-02T13:06:38.439Z,0.30
2023-04-02T13:09:07.360Z,0.50
2023-04-02T13:11:39.692Z,0.65
2023-04-02T13:16:46.360Z,0.40
2023-04-02T13:19:27.186Z,0.52
2023-04-02T13:21:55.335Z,0.40
2023-04-02T13:24:30.327Z,0.70
2023-04-02T13:27:01.855Z,0.60
2023-04-02T13:29:36.274Z,0.65
2023-04-02T13:32:11.821Z,0.77
2023-04-02T13:34:40.901Z,0.70
2023-04-02T13:37:12.373Z,1.20
2023-04-02T13:39:38.739Z,0.60
2023-04-02T13:42:07.733Z,0.50
2023-04-02T13:44:37.492Z,0.30
2023-04-02T13:47:04.076Z,0.30
2023-04-02T13:49:31.775Z,0.40
2023-04-02T13:52:03.131Z,0.35
2023-04-02T13:54:37.203Z,0.40
2023-04-02T13:57:03.671Z,0.40
2023-04-02T13:59:30.294Z,0.40
2023-04-02T14:02:03.159Z,0.30
2023-04-02T14:04:35.326Z,0.50
2023-04-02T14:07:02.146Z,0.30
2023-04-02T14:09:47.865Z,0.25
2023-04-02T14:12:23.778Z,0.38
2023-04-02T14:15:03.695Z,0.38
2023-04-02T14:17:52.138Z,0.20
2023-04-02T14:20:31.001Z,0.20
2023-04-02T14:23:22.457Z,0.50
2023-04-02T14:25:58.074Z,0.40
2023-04-02T14:28:37.867Z,0.73
2023-04-02T14:31:15.578Z,0.93
2023-04-02T14:34:11.310Z,0.30
2023-04-02T14:36:46.045Z,0.32
2023-04-02T14:39:18.393Z,0.20
2023-04-02T14:42:04.478Z,0.40
2023-04-02T14:44:38.466Z,1.05
2023-04-02T14:47:31.267Z,0.52
2023-04-02T14:50:06.154Z,0.80
2023-04-02T14:52:37.564Z,0.25
2023-04-02T14:55:14.138Z,0.30
2023-04-02T14:57:48.985Z,0.30
2023-04-02T15:00:36.797Z,0.38
2023-04-02T15:03:18.916Z,0.20
2023-04-02T15:05:53.663Z,0.28
2023-04-02T15:08:29.861Z,0.30
2023-04-02T15:11:02.982Z,0.30
2023-04-02T15:13:49.098Z,0.30
2023-04-02T15:16:23.582Z,0.30
2023-04-02T15:18:52.076Z,0.30
2023-04-02T15:21:29.188Z,0.30
2023-04-02T15:24:04.177Z,0.20
2023-04-02T15:26:55.461Z,0.38
2023-04-02T15:29:29.528Z,0.30
2023-04-02T15:32:40.671Z,0.30
2023-04-02T15:35:23.174Z,0.20
2023-04-02T15:40:15.904Z,0.50
2023-04-02T15:42:52.868Z,0.40
2023-04-02T15:45:29.111Z,0.50
2023-04-02T15:48:21.528Z,0.50
2023-04-02T15:51:01.767Z,0.85
2023-04-02T15:53:48.226Z,0.40
2023-04-02T15:56:46.050Z,0.73
2023-04-02T15:59:41.104Z,0.57
2023-04-02T16:02:27.404Z,0.40
2023-04-02T16:05:03.773Z,0.88
2023-04-02T16:07:57.474Z,0.50
2023-04-02T16:10:41.320Z,1.20
2023-04-02T16:13:18.213Z,0.80
2023-04-02T16:16:01.636Z,0.90
2023-04-02T16:18:44.144Z,0.90
2023-04-02T16:23:41.906Z,1.00
2023-04-02T16:26:26.970Z,0.85
2023-04-02T16:29:12.485Z,2.50
2023-04-02T16:31:57.587Z,1.02
2023-04-02T16:35:09.512Z,1.30
2023-04-02T16:37:56.343Z,0.95
2023-04-02T16:40:42.845Z,0.80
2023-04-02T16:43:39.657Z,1.30
2023-04-02T16:46:38.724Z,1.15
2023-04-02T16:49:36.514Z,1.00
2023-04-02T16:52:11.665Z,0.80
2023-04-02T16:55:02.916Z,1.20
2023-04-02T16:57:40.080Z,1.23
2023-04-02T17:00:30.625Z,1.08
2023-04-02T17:03:30.460Z,3.47
2023-04-02T17:06:23.972Z,2.72
2023-04-02T17:09:02.656Z,1.10
2023-04-02T17:11:35.432Z,1.00
2023-04-02T17:14:06.423Z,0.82
2023-04-02T17:16:43.674Z,1.40
2023-04-02T17:19:12.794Z,1.13
2023-04-02T17:21:46.250Z,0.98
2023-04-02T17:24:23.982Z,0.98
2023-04-02T17:26:55.098Z,1.08
2023-04-02T17:29:35.023Z,0.63
2023-04-02T17:32:03.678Z,0.70
2023-04-02T17:34:30.546Z,0.82
2023-04-02T17:37:07.249Z,0.80
2023-04-02T17:39:54.959Z,1.20
2023-04-02T17:42:30.610Z,0.95
2023-04-02T17:45:02.999Z,1.38
2023-04-02T17:50:17.591Z,1.27
2023-04-02T17:52:56.633Z,1.23
2023-04-02T17:55:41.608Z,2.15
2023-04-02T17:58:50.508Z,4.93
2023-04-02T18:01:28.817Z,2.97
2023-04-02T18:03:58.309Z,3.17
2023-04-02T18:06:43.955Z,3.03
2023-04-02T18:09:38.336Z,5.13
2023-04-02T18:12:29.567Z,4.07
2023-04-02T18:15:05.578Z,3.83
2023-04-02T18:18:07.695Z,2.38
2023-04-02T18:20:53.923Z,2.05
2023-04-02T18:23:26.126Z,2.22
2023-04-02T18:26:05.291Z,2.50
2023-04-02T18:28:45.819Z,1.88
2023-04-02T18:31:18.238Z,2.00
2023-04-02T18:36:23.428Z,2.35
2023-04-02T18:39:08.222Z,2.08
2023-04-02T18:41:50.156Z,1.38
2023-04-02T18:44:36.200Z,1.90
2023-04-02T18:47:30.074Z,2.38
2023-04-02T18:50:16.327Z,4.93
2023-04-02T18:52:43.014Z,2.35
2023-04-02T18:55:24.879Z,2.17
2023-04-02T18:58:24.887Z,2.15
2023-04-02T19:00:51.947Z,2.65
2023-04-02T19:03:51.438Z,5.53
2023-04-02T19:06:28.723Z,2.10
2023-04-02T19:09:01.008Z,2.83
2023-04-02T19:11:31.447Z,1.60
2023-04-02T19:14:04.614Z,2.83
2023-04-02T19:16:45.002Z,1.60
2023-04-02T19:19:27.145Z,2.35
2023-04-02T19:22:32.366Z,4.45
2023-04-02T19:25:05.079Z,1.38
2023-04-02T19:27:34.039Z,1.98
2023-04-02T19:30:00.508Z,1.95
2023-04-02T19:32:54.896Z,2.22
2023-04-02T19:35:28.955Z,1.88
2023-04-02T19:38:22.134Z,2.33
2023-04-02T19:40:58.694Z,1.77
2023-04-02T19:43:25.506Z,1.60
2023-04-02T19:45:56.868Z,1.60
2023-04-02T19:48:30.854Z,1.60
2023-04-02T19:50:57.243Z,1.42
2023-04-02T19:53:23.787Z,2.00
2023-04-02T19:55:50.701Z,1.40
2023-04-02T19:58:29.698Z,1.63
2023-04-02T20:00:56.890Z,1.38
2023-04-02T20:03:23.640Z,2.30
2023-04-02T20:05:50.745Z,1.92
2023-04-02T20:08:17.521Z,1.80
2023-04-02T20:10:44.044Z,1.70
2023-04-02T20:13:13.185Z,1.90
2023-04-02T20:15:41.133Z,1.88
2023-04-02T20:18:10.862Z,1.38
2023-04-02T20:20:39.195Z,1.60
2023-04-02T20:23:08.035Z,1.67
2023-04-02T20:25:36.785Z,1.75
2023-04-02T20:28:04.017Z,2.33
2023-04-02T20:30:35.620Z,1.35
2023-04-02T20:33:04.906Z,1.42
2023-04-02T20:35:34.433Z,1.38
2023-04-02T20:38:03.013Z,1.67
2023-04-02T20:40:29.427Z,3.10
2023-04-02T20:42:55.949Z,3.20
2023-04-02T20:45:22.484Z,3.13
2023-04-02T20:47:48.939Z,2.33
2023-04-02T20:50:17.951Z,2.05
2023-04-02T20:52:44.774Z,1.92
2023-04-02T20:55:13.760Z,1.98
2023-04-02T20:57:42.594Z,2.03
2023-04-02T21:00:10.944Z,1.70
2023-04-02T21:02:37.597Z,1.70
2023-04-02T21:05:04.357Z,3.00
2023-04-02T21:07:33.194Z,1.70
2023-04-02T21:09:59.685Z,2.90
2023-04-02T21:12:26.044Z,2.85
2023-04-02T21:14:57.288Z,2.17
2023-04-02T21:17:24.126Z,3.20
2023-04-02T21:19:50.506Z,2.47
2023-04-02T21:22:21.734Z,2.58
2023-04-02T21:24:48.145Z,1.52
2023-04-02T21:27:17.300Z,1.55
2023-04-02T21:29:48.388Z,1.90
2023-04-02T21:32:21.755Z,2.25
2023-04-02T21:34:48.659Z,1.30
2023-04-02T21:37:15.417Z,1.95
2023-04-02T21:39:41.785Z,1.70
2023-04-02T21:42:08.307Z,2.70
2023-04-02T21:44:34.702Z,1.70
2023-04-02T21:47:01.222Z,2.67
2023-04-02T21:49:28.223Z,1.80
2023-04-02T21:51:54.710Z,1.30
2023-04-02T21:54:21.422Z,1.60
2023-04-02T21:56:48.553Z,1.40
2023-04-02T21:59:16.738Z,1.63
2023-04-02T22:01:48.487Z,1.20
2023-04-02T22:04:24.069Z,1.33
2023-04-02T22:06:52.156Z,1.08
2023-04-02T22:09:22.294Z,1.13
2023-04-02T22:11:56.106Z,1.58
2023-04-02T22:14:23.197Z,0.88
2023-04-02T22:16:49.667Z,1.02
2023-04-02T22:19:19.505Z,1.00
2023-04-02T22:21:46.252Z,1.10
2023-04-02T22:24:14.928Z,1.33
2023-04-02T22:26:41.857Z,0.82
2023-04-02T22:29:08.632Z,1.17
2023-04-02T22:31:35.777Z,1.20
2023-04-02T22:34:03.718Z,1.60
2023-04-02T22:36:32.872Z,1.58
2023-04-02T22:39:05.170Z,1.20
2023-04-02T22:41:32.071Z,1.17
2023-04-02T22:44:02.422Z,1.58
2023-04-02T22:46:29.972Z,0.90
2023-04-02T22:48:56.718Z,1.17
2023-04-02T22:51:25.582Z,1.77
2023-04-02T22:53:54.581Z,0.93
2023-04-02T22:56:28.489Z,1.23
2023-04-02T22:58:55.005Z,1.13
2023-04-02T23:01:27.105Z,0.95
2023-04-02T23:03:55.153Z,1.10
2023-04-02T23:06:22.662Z,1.20
2023-04-02T23:08:49.309Z,0.90
2023-04-02T23:11:22.172Z,1.45
2023-04-02T23:13:50.931Z,1.00
2023-04-02T23:16:17.995Z,1.08
2023-04-02T23:18:47.976Z,0.95
2023-04-02T23:21:15.906Z,1.40
2023-04-02T23:23:42.342Z,1.15
2023-04-02T23:26:23.780Z,0.95
2023-04-02T23:28:53.024Z,1.23
2023-04-02T23:31:22.105Z,1.15
2023-04-02T23:33:49.847Z,1.17
2023-04-02T23:36:24.787Z,1.10
2023-04-02T23:38:56.596Z,1.10
2023-04-02T23:41:26.687Z,1.40
2023-04-02T23:43:54.350Z,0.80
2023-04-02T23:46:21.085Z,1.45
2023-04-02T23:48:52.141Z,0.90
2023-04-02T23:51:18.812Z,1.27
2023-04-02T23:53:45.485Z,1.05
2023-04-02T23:56:12.088Z,1.40
2023-04-02T23:58:38.573Z,1.67
